Latest Weather Observations for Thredbo Top Station

IDN60801

Issued at 3:32 am EDT Monday 15 February 2016 (issued every 30 minutes, with the page automatically refreshed every 10 minutes)

About weather observations | Map of weather stations | Latest weather observations for NSW | Other Formats
Station Details ID: 071032 Name: THREDBO AWS Lat: -36.49 Lon: 148.29 Height: 1957.0 m
Data from the previous 72 hours. | See also: Recent months at Thredbo Top Station
Date/Time
EDT
Temp
°C
App
Temp
°C
Dew
Point
Rel
Hum
%
Delta-T
°C
Wind Press
QNH
hPa
Press
MSL
hPa
Rain
since 9 am
mm
Dir
 
Spd
km/h
Gust
km/h
Spd
kts
Gust
kts
15/03:30am 6.5 0.1 3.1 79 1.6 NNW 26 33 14 18 1016.4 1007.3 0.0
15/03:00am 4.6 -0.3 4.2 97 0.2 N 19 22 10 12 1016.8 1007.8 0.0
15/02:30am 4.8 0.4 4.7 99 0.0 N 17 20 9 11 1017.2 1008.2 0.0
15/02:00am 5.5 0.9 5.4 99 0.0 N 19 24 10 13 1017.3 1008.3 0.0
15/01:30am 5.6 2.1 5.5 99 0.0 N 13 20 7 11 1017.7 1008.7 0.0
15/01:00am 5.4 2.6 5.3 99 0.0 NNW 9 13 5 7 1018.2 1009.2 0.0
15/12:30am 4.9 0.5 4.8 99 0.0 NNW 17 19 9 10 1018.3 1009.3 0.0
15/12:00am 4.6 0.9 4.5 99 0.0 NNW 13 15 7 8 1018.3 1009.3 0.0
 
Date/Time
EDT
Temp
°C
App
Temp
°C
Dew
Point
Rel
Hum
%
Delta-T
°C
Wind Press
QNH
hPa
Press
MSL
hPa
Rain
since 9 am
mm
Dir
 
Spd
km/h
Gust
km/h
Spd
kts
Gust
kts
14/11:30pm 4.9 0.9 4.8 99 0.0 N 15 17 8 9 1018.4 1009.5 0.0
14/11:00pm 4.4 1.8 0.9 78 1.5 NNE 4 11 2 6 1018.8 1009.8 0.0
14/10:30pm 6.6 2.8 1.7 71 2.2 N 11 13 6 7 1018.9 1010.0 0.0
14/10:00pm 5.5 2.0 1.1 73 2.0 N 9 13 5 7 1018.9 1010.0 0.0
14/09:30pm 7.5 4.9 0.9 63 3.0 NW 4 7 2 4 1018.9 1010.0 0.0
14/09:00pm 9.9 4.6 2.0 58 3.7 NNW 19 24 10 13 1018.5 1009.6 0.0
14/08:30pm 11.0 4.4 2.1 54 4.3 NNW 26 37 14 20 1017.8 1008.8 0.0
14/08:00pm 11.7 3.9 1.9 51 4.7 NNW 32 41 17 22 1017.6 1008.6 0.0
14/07:30pm 12.1 6.2 2.0 50 4.9 NW 22 33 12 18 1017.3 1008.3 0.0
14/07:00pm 13.4 6.1 -0.3 39 6.4 NW 28 39 15 21 1016.8 1007.8 0.0
14/06:36pm 13.9 5.4 -1.7 34 7.1 NNW 33 52 18 28 1016.6 1007.6 0.0
14/06:30pm 14.1 5.5 0.4 39 6.5 NNW 35 52 19 28 1016.5 1007.4 0.0
14/06:00pm 15.0 6.4 0.1 36 7.1 NW 35 54 19 29 1016.2 1007.2 0.0
14/05:31pm 15.2 6.5 2.1 41 6.5 NW 37 56 20 30 1015.7 1006.7 0.0
14/05:30pm 15.2 6.1 2.1 41 6.5 NW 39 56 21 30 1015.9 1006.8 0.0
14/05:07pm 15.7 7.3 1.8 39 6.9 NW 35 54 19 29 1015.7 1006.7 0.0
14/05:00pm 15.7 7.0 2.2 40 6.7 NW 37 52 20 28 1015.7 1006.7 0.0
14/04:34pm 15.7 6.7 2.2 40 6.7 NNW 39 57 21 31 1015.4 1006.3 0.0
14/04:30pm 15.7 6.3 2.5 41 6.6 NW 41 56 22 30 1015.7 1006.7 0.0
14/04:00pm 16.6 8.1 3.3 41 6.8 NW 37 57 20 31 1015.6 1006.6 0.0
14/03:30pm 16.5 7.6 2.9 40 6.9 NW 39 65 21 35 1015.6 1006.6 0.0
14/03:00pm 16.7 7.2 1.6 36 7.5 NW 41 61 22 33 1015.7 1006.7 0.0
14/02:30pm 16.3 6.0 0.4 34 7.7 NW 44 70 24 38 1015.6 1006.6 0.0
14/02:00pm 15.9 6.2 4.0 45 6.2 NW 44 72 24 39 1015.9 1006.8 0.0
14/01:37pm 16.0 6.8 5.6 50 5.5 NW 43 61 23 33 1015.7 1006.7 0.0
14/01:30pm 15.1 5.8 5.9 54 4.9 NW 44 61 24 33 1015.5 1006.4 0.0
14/01:00pm 14.8 5.5 5.9 55 4.7 NNW 44 63 24 34 1015.9 1006.8 0.0
14/12:30pm 15.0 4.0 5.0 51 5.2 NNW 52 70 28 38 1015.4 1006.3 0.0
14/12:00pm 15.0 3.8 3.8 47 5.7 NNW 52 72 28 39 1015.6 1006.6 0.0
14/11:30am 14.8 4.4 2.0 42 6.3 NW 46 78 25 42 1016.0 1006.9 0.0
14/11:00am 14.8 4.1 -0.1 36 7.0 NW 46 67 25 36 1016.2 1007.2 0.0
14/10:40am 14.1 3.8 2.4 45 5.8 NNW 46 65 25 35 1016.1 1007.1 0.0
14/10:30am 14.7 4.6 3.5 47 5.7 NNW 46 63 25 34 1016.4 1007.3 0.0
14/10:10am 13.7 3.7 4.3 53 4.8 NNW 46 65 25 35 1016.2 1007.2 0.0
14/10:00am 14.3 4.3 2.2 44 6.0 NW 44 59 24 32 1016.1 1007.1 0.0
14/09:42am 14.0 3.9 3.8 50 5.2 NNW 46 65 25 35 1016.1 1007.1 0.0
14/09:30am 14.2 3.5 2.8 46 5.7 NNW 48 61 26 33 1016.2 1007.2 0.0
14/09:03am 14.2 4.7 1.8 43 6.1 NNW 41 59 22 32 1016.6 1007.6 0.0
14/09:00am 14.1 4.4 2.7 46 5.7 NNW 43 57 23 31 1016.5 1007.4 0.0
14/08:30am 13.6 3.8 3.4 50 5.1 NNW 44 61 24 33 1016.6 1007.6 0.0
14/08:18am 13.5 4.2 2.7 48 5.3 NW 41 65 22 35 1016.1 1007.1 0.0
14/08:00am 13.7 5.1 2.6 47 5.5 NNW 37 50 20 27 1016.5 1007.4 0.0
14/07:30am 12.8 4.2 2.6 50 5.0 NNW 37 50 20 27 1016.5 1007.4 0.0
14/07:00am 12.7 4.0 2.3 49 5.1 NNW 37 50 20 27 1016.1 1007.1 0.0
14/06:30am 12.7 3.6 1.7 47 5.3 NNW 39 48 21 26 1016.0 1006.9 0.0
14/06:00am 12.9 4.1 1.3 45 5.6 NNW 37 50 20 27 1015.7 1006.7 0.0
14/05:30am 13.3 3.6 0.7 42 6.0 NNW 41 56 22 30 1015.4 1006.3 0.0
14/05:21am 13.4 4.0 0.1 40 6.2 NNW 39 57 21 31 1015.5 1006.4 0.0
14/05:00am 13.0 2.4 1.0 44 5.7 NNW 46 61 25 33 1015.1 1006.1 0.0
14/04:30am 13.5 4.2 0.5 41 6.1 NNW 39 57 21 31 1015.6 1006.6 0.0
14/04:27am 13.4 3.7 0.8 42 6.0 NNW 41 59 22 32 1015.4 1006.3 0.0
14/04:00am 13.8 5.9 1.1 42 6.1 NW 32 46 17 25 1015.9 1006.8 0.0
14/03:30am 14.4 5.9 0.6 39 6.6 NW 35 54 19 29 1016.2 1007.2 0.0
14/03:00am 14.2 6.2 0.5 39 6.5 NW 32 52 17 28 1016.5 1007.4 0.0
14/02:39am 14.6 5.3 0.5 38 6.7 NW 39 57 21 31 1016.6 1007.6 0.0
14/02:30am 14.7 5.0 0.5 38 6.8 NW 41 57 22 31 1016.8 1007.8 0.0
14/02:06am 15.3 5.2 0.3 36 7.2 NW 43 61 23 33 1016.8 1007.8 0.0
14/02:00am 15.3 5.2 0.3 36 7.2 NW 43 59 23 32 1016.8 1007.8 0.0
14/01:33am 15.5 5.8 0.5 36 7.2 NW 41 59 22 32 1017.2 1008.2 0.0
14/01:30am 15.2 5.9 0.6 37 7.0 NW 39 56 21 30 1017.3 1008.3 0.0
14/01:04am 15.5 6.7 1.3 38 6.9 NW 37 56 20 30 1017.6 1008.6 0.0
14/01:00am 15.6 6.7 1.0 37 7.1 NW 37 52 20 28 1017.6 1008.6 0.0
14/12:34am 15.5 6.5 2.3 41 6.6 NW 39 57 21 31 1017.7 1008.7 0.0
14/12:30am 15.7 6.2 1.8 39 6.9 NW 41 57 22 31 1017.8 1008.8 0.0
14/12:17am 15.8 8.0 2.6 41 6.6 NW 33 52 18 28 1018.0 1009.1 0.0
14/12:00am 15.5 7.9 3.9 46 6.0 NW 33 44 18 24 1018.2 1009.2 0.0
 
Date/Time
EDT
Temp
°C
App
Temp
°C
Dew
Point
Rel
Hum
%
Delta-T
°C
Wind Press
QNH
hPa
Press
MSL
hPa
Rain
since 9 am
mm
Dir
 
Spd
km/h
Gust
km/h
Spd
kts
Gust
kts
13/11:30pm 15.9 8.2 3.4 43 6.4 NW 33 46 18 25 1018.0 1009.1 0.0
13/11:00pm 16.1 8.2 4.5 46 6.1 NNW 35 46 19 25 1018.3 1009.3 0.0
13/10:30pm 16.0 8.7 5.3 49 5.7 NNW 33 46 18 25 1018.8 1009.8 0.0
13/10:00pm 15.8 7.5 6.0 52 5.3 NNW 39 52 21 28 1018.8 1009.8 0.0
13/09:30pm 15.9 8.0 6.3 53 5.2 NNW 37 48 20 26 1019.0 1010.1 0.0
13/09:00pm 16.1 8.3 6.5 53 5.2 NNW 37 50 20 27 1018.9 1010.0 0.0
13/08:30pm 15.9 8.9 6.9 55 4.9 NNW 33 41 18 22 1019.0 1010.1 0.0
13/08:00pm 16.0 9.3 7.2 56 4.8 NNW 32 43 17 23 1019.1 1010.2 0.0
13/07:30pm 16.0 8.8 7.5 57 4.7 NNW 35 46 19 25 1019.0 1010.1 0.0
13/07:00pm 16.2 7.5 7.9 58 4.6 NNW 43 54 23 29 1018.5 1009.6 0.0
13/06:30pm 16.5 9.1 8.2 58 4.7 NNW 37 50 20 27 1018.8 1009.8 0.0
13/06:00pm 16.4 6.8 8.1 58 4.6 NNW 48 57 26 31 1018.4 1009.5 0.0
13/05:39pm 16.7 7.5 7.9 56 4.9 NNW 46 65 25 35 1018.3 1009.3 0.0
13/05:30pm 16.5 7.3 8.2 58 4.7 NNW 46 57 25 31 1018.7 1009.7 0.0
13/05:00pm 16.5 7.9 8.2 58 4.7 NNW 43 56 23 30 1018.9 1010.0 0.0
13/04:30pm 17.2 7.9 9.1 59 4.6 NNW 48 56 26 30 1018.7 1009.7 0.0
13/04:00pm 17.1 8.0 8.3 56 5.0 NNW 46 57 25 31 1019.3 1010.3 0.0
13/03:33pm 17.5 9.9 8.9 57 4.9 NW 39 59 21 32 1019.3 1010.3 0.0
13/03:30pm 17.3 9.6 8.7 57 4.9 NW 39 52 21 28 1019.5 1010.6 0.0
13/03:00pm 17.8 9.5 7.8 52 5.6 NW 41 54 22 29 1019.9 1011.0 0.0
13/02:35pm 17.2 8.4 7.3 52 5.5 NW 43 61 23 33 1019.7 1010.8 0.0
13/02:30pm 17.3 8.0 7.4 52 5.5 NW 46 61 25 33 1020.0 1011.1 0.0
13/02:00pm 16.8 5.5 3.5 41 6.8 NW 52 65 28 35 1019.6 1010.7 0.0
13/01:30pm 17.3 5.5 2.5 37 7.5 NW 54 70 29 38 1020.1 1011.2 0.0
13/01:00pm 17.5 5.7 2.7 37 7.5 NW 54 72 29 39 1020.1 1011.2 0.0
13/12:48pm 17.1 6.5 5.1 45 6.4 NW 50 69 27 37 1020.4 1011.5 0.0
13/12:30pm 17.5 6.1 4.8 43 6.7 NW 54 67 29 36 1020.4 1011.5 0.0
13/12:04pm 17.3 7.9 4.6 43 6.7 NW 43 63 23 34 1020.6 1011.7 0.0
13/12:00pm 17.7 8.5 5.6 45 6.5 NW 43 57 23 31 1020.6 1011.7 0.0
13/11:53am 17.7 7.9 5.3 44 6.6 NW 46 65 25 35 1020.8 1012.0 0.0
13/11:30am 16.9 7.1 5.5 47 6.1 NW 46 61 25 33 1020.6 1011.7 0.0
13/11:00am 16.0 6.4 6.2 52 5.3 NNW 46 61 25 33 1020.2 1011.3 0.0
13/10:30am 15.6 7.6 7.6 59 4.4 NW 39 54 21 29 1020.8 1012.0 0.0
13/10:00am 14.9 8.1 7.9 63 3.9 NW 33 52 18 28 1021.4 1012.6 0.0
13/09:56am 15.8 9.8 8.8 63 4.0 NW 30 48 16 26 1021.4 1012.6 0.0
13/09:30am 14.4 6.7 8.8 69 3.1 NNW 39 50 21 27 1021.1 1012.2 0.0
13/09:00am 13.5 4.5 8.8 73 2.6 NNW 46 59 25 32 1020.7 1011.8 0.0
13/08:30am 13.3 3.1 8.6 73 2.6 NNW 52 69 28 37 1020.1 1011.2 0.0
13/08:00am 12.8 4.5 7.7 71 2.8 NW 41 61 22 33 1020.4 1011.5 0.0
13/07:42am 13.1 4.5 8.0 71 2.8 NW 43 63 23 34 1020.1 1011.2 0.0
13/07:30am 13.1 4.1 7.3 68 3.1 NW 44 59 24 32 1019.7 1010.8 0.0
13/07:11am 13.0 4.1 6.8 66 3.3 NW 43 63 23 34 1019.9 1011.0 0.0
13/07:00am 12.9 3.8 6.7 66 3.3 NW 44 61 24 33 1019.9 1011.0 0.0
13/06:51am 12.8 4.2 6.4 65 3.4 NW 41 59 22 32 1019.9 1011.0 0.0
13/06:30am 12.8 2.5 6.6 66 3.3 NNW 50 63 27 34 1019.5 1010.6 0.0
13/06:00am 12.9 1.4 6.9 67 3.2 NNW 57 69 31 37 1018.7 1009.7 0.0
13/05:30am 12.8 0.5 6.8 67 3.2 NNW 61 72 33 39 1018.3 1009.3 0.0
13/05:00am 12.9 1.4 6.9 67 3.2 NNW 57 69 31 37 1018.4 1009.5 0.0
13/04:30am 12.8 2.5 6.6 66 3.3 NNW 50 61 27 33 1018.9 1010.0 0.0
13/04:00am 12.5 5.0 6.1 65 3.4 NNW 35 52 19 28 1019.6 1010.7 0.0
13/03:30am 12.5 5.3 5.0 60 3.9 NNW 32 43 17 23 1020.5 1011.6 0.0
13/03:00am 12.6 7.6 4.8 59 4.0 NW 20 28 11 15 1021.2 1012.3 0.0
13/02:30am 12.7 7.7 4.7 58 4.1 NNW 20 26 11 14 1021.6 1012.7 0.0
13/02:00am 12.7 7.7 4.4 57 4.2 NNW 20 28 11 15 1021.7 1012.8 0.0
13/01:30am 12.3 7.4 4.3 58 4.1 NW 19 24 10 13 1022.0 1013.2 0.0
13/01:00am 12.5 7.7 4.5 58 4.1 NNW 19 26 10 14 1022.3 1013.5 0.0
13/12:30am 12.3 7.9 4.8 60 3.8 NW 17 22 9 12 1022.7 1013.9 0.0
13/12:00am 11.3 7.3 5.0 65 3.2 NNW 15 20 8 11 1022.8 1014.0 0.0
 
Date/Time
EDT
Temp
°C
App
Temp
°C
Dew
Point
Rel
Hum
%
Delta-T
°C
Wind Press
QNH
hPa
Press
MSL
hPa
Rain
since 9 am
mm
Dir
 
Spd
km/h
Gust
km/h
Spd
kts
Gust
kts
12/11:30pm 10.8 6.9 5.3 69 2.8 NW 15 17 8 9 1023.0 1014.2 0.0
12/11:00pm 8.8 5.5 4.8 76 2.0 NW 11 15 6 8 1023.3 1014.5 0.0
12/10:30pm 11.3 7.0 5.2 66 3.1 NW 17 20 9 11 1023.6 1014.9 0.0
12/10:00pm 9.2 4.9 5.2 76 2.0 NNW 17 19 9 10 1023.7 1015.0 0.0
12/09:30pm 9.7 5.4 5.3 74 2.2 NW 17 20 9 11 1023.7 1015.0 0.0
12/09:00pm 11.7 7.3 4.9 63 3.5 NW 17 20 9 11 1023.5 1014.7 0.0
12/08:30pm 11.8 7.9 5.2 64 3.4 NW 15 19 8 10 1023.5 1014.7 0.0
12/08:00pm 11.1 7.5 4.8 65 3.2 NNW 13 19 7 10 1023.5 1014.7 0.0
12/07:30pm 13.9 9.9 4.8 54 4.7 NNW 15 20 8 11 1023.4 1014.6 0.0
12/07:00pm 15.3 11.2 4.4 48 5.6 NW 15 22 8 12 1023.3 1014.5 0.0
12/06:30pm 15.7 11.7 5.0 49 5.6 NNW 15 28 8 15 1023.1 1014.4 0.0
12/06:00pm 16.5 12.4 6.3 51 5.5 NNW 17 24 9 13 1023.1 1014.4 0.0
12/05:30pm 16.7 12.6 6.2 50 5.7 NW 17 28 9 15 1023.0 1014.2 0.0
12/05:00pm 15.9 12.9 6.1 52 5.3 WNW 11 24 6 13 1023.0 1014.2 0.0
12/04:30pm 15.8 12.4 5.7 51 5.4 NW 13 26 7 14 1023.0 1014.2 0.0
12/04:00pm 16.8 14.0 6.9 52 5.4 NNW 11 20 6 11 1023.3 1014.5 0.0
12/03:30pm 16.6 13.4 6.7 52 5.4 NW 13 28 7 15 1023.5 1014.7 0.0
12/03:00pm 16.3 12.9 5.9 50 5.6 WNW 13 26 7 14 1023.6 1014.9 0.0
12/02:30pm 17.0 13.6 5.9 48 6.0 NNW 13 22 7 12 1023.9 1015.1 0.0
12/02:00pm 16.4 13.1 6.5 52 5.4 NW 13 26 7 14 1024.1 1015.4 0.0
12/01:30pm 16.8 13.2 4.8 45 6.3 WNW 13 24 7 13 1024.2 1015.5 0.0
12/01:00pm 16.0 10.6 1.0 36 7.3 WNW 19 32 10 17 1024.1 1015.4 0.0
12/12:30pm 16.1 11.9 1.4 37 7.2 WSW 13 26 7 14 1024.5 1015.7 0.0
12/12:00pm 16.1 11.9 1.8 38 7.1 W 13 28 7 15 1024.6 1015.9 0.0
12/11:30am 15.8 11.5 0.8 36 7.3 WSW 13 28 7 15 1024.6 1015.9 0.0
12/11:00am 15.5 11.0 2.3 41 6.6 WSW 15 26 8 14 1024.6 1015.9 0.0
12/10:30am 15.3 11.7 2.8 43 6.3 WNW 11 24 6 13 1024.5 1015.7 0.0
12/10:00am 15.0 11.8 0.8 38 6.8 WNW 7 19 4 10 1024.5 1015.7 0.0
12/09:30am 14.3 11.0 2.5 45 5.9 W 9 17 5 9 1024.6 1015.9 0.0
12/09:00am 14.1 11.3 3.3 48 5.4 W 7 17 4 9 1024.6 1015.9 0.0
12/08:30am 13.8 10.5 2.7 47 5.5 W 9 15 5 8 1024.3 1015.6 0.0
12/08:00am 12.2 8.9 6.5 68 3.0 NNW 13 19 7 10 1023.9 1015.1 0.0
12/07:30am 11.2 8.2 7.5 78 2.0 NW 13 19 7 10 1023.6 1014.9 0.0
12/07:00am 8.9 5.8 7.2 89 0.9 NW 13 17 7 9 1023.5 1014.7 0.0
12/06:30am 8.3 4.7 6.8 90 0.8 NW 15 17 8 9 1023.4 1014.6 0.0
12/06:00am 8.5 5.3 7.0 90 0.8 NW 13 15 7 8 1023.0 1014.2 0.0
12/05:30am 9.2 5.7 7.3 88 1.0 WNW 15 17 8 9 1022.8 1014.0 0.0
12/05:00am 9.3 5.4 7.1 86 1.2 NW 17 19 9 10 1022.5 1013.7 0.0
12/04:30am 10.2 6.2 6.7 79 1.8 NW 17 22 9 12 1022.5 1013.7 0.0
12/04:00am 9.8 4.7 6.0 77 2.0 NNW 22 26 12 14 1022.5 1013.7 0.0

Other Formats:

Comma delimited format used in spreadsheet applications
http://www.bom.gov.au/fwo/IDN60801/IDN60801.95909.axf

JavaScript Object Notation format (JSON) in row-major order
http://www.bom.gov.au/fwo/IDN60801/IDN60801.95909.json